Date,TemperatureHighF,TemperatureAvgF,TemperatureLowF,DewpointHighF,DewpointAvgF,DewpointLowF,HumidityHigh,HumidityAvg,HumidityLow,PressureMaxIn,PressureMinIn,WindSpeedMaxMPH,WindSpeedAvgMPH,GustSpeedMaxMPH,PrecipitationSumIn
2013-1-1,30.3,26.0,21.2,-99.9,-99.9,-99.9,0,0,100,0.00,40.00,4,2,12,0.00
2013-1-2,23.0,17.9,10.8,-99.9,-99.9,-99.9,0,0,100,0.00,40.00,4,2,11,0.00
2013-1-3,28.2,19.4,8.4,-99.9,-99.9,-99.9,0,0,100,0.00,40.00,7,3,19,0.00
2013-1-4,35.4,26.4,23.7,-99.9,-99.9,-99.9,0,0,100,0.00,40.00,12,8,29,0.00
2013-1-5,33.9,28.6,23.9,-99.9,-99.9,-99.9,0,0,100,0.00,40.00,7,4,15,0.00
2013-1-6,34.9,32.6,30.5,-99.9,-99.9,-99.9,0,0,100,0.00,40.00,6,5,17,0.03
2013-1-7,35.0,30.4,27.1,-99.9,-99.9,-99.9,0,0,100,0.00,40.00,8,3,16,0.00
2013-1-8,44.1,32.5,24.8,-99.9,-99.9,-99.9,0,0,100,0.00,40.00,6,3,12,0.00
2013-1-9,51.4,39.3,34.3,-99.9,-99.9,-99.9,0,0,100,0.00,40.00,9,5,24,0.04
2013-1-10,42.2,34.6,26.2,-99.9,-99.9,-99.9,0,0,100,0.00,40.00,5,1,11,0.00
2013-1-11,52.7,45.5,38.4,-99.9,-99.9,-99.9,0,0,100,0.00,40.00,6,3,19,0.40
2013-1-12,58.4,53.4,46.8,-99.9,-99.9,-99.9,0,0,100,0.00,40.00,6,3,16,0.01
2013-1-13,62.3,54.0,38.6,-99.9,-99.9,-99.9,0,0,100,0.00,40.00,9,3,23,0.17
2013-1-14,37.5,29.9,26.5,-99.9,-99.9,-99.9,0,0,100,0.00,40.00,9,3,24,0.00
2013-1-15,38.8,29.2,26.8,-99.9,-99.9,-99.9,0,0,100,0.00,40.00,2,1,7,0.00
2013-1-16,34.0,30.9,27.6,-99.9,-99.9,-99.9,0,0,100,0.00,40.00,7,4,16,0.00
2013-1-17,35.7,32.1,26.3,-99.9,-99.9,-99.9,0,0,100,0.00,40.00,7,3,21,0.00
2013-1-18,36.0,26.6,20.7,-99.9,-99.9,-99.9,0,0,100,0.00,40.00,14,6,30,0.00
2013-1-19,49.4,41.1,32.8,-99.9,-99.9,-99.9,0,0,100,0.00,40.00,12,9,29,0.00
2013-1-20,45.7,28.6,20.6,-99.9,-99.9,-99.9,0,0,100,0.00,40.00,13,8,39,0.00
2013-1-21,21.3,17.5,9.8,-99.9,-99.9,-99.9,0,0,100,0.00,40.00,8,5,26,0.00
2013-1-22,12.2,7.7,6.4,-99.9,-99.9,-99.9,0,0,100,0.00,40.00,8,5,21,0.06
2013-1-23,18.5,9.8,5.6,-99.9,-99.9,-99.9,0,0,100,0.00,40.00,6,3,14,0.01
2013-1-24,26.8,13.9,4.8,-99.9,-99.9,-99.9,0,0,100,0.00,40.00,4,1,13,0.06
2013-1-25,18.6,14.5,10.6,-99.9,-99.9,-99.9,0,0,100,0.00,40.00,3,1,8,0.02
2013-1-26,25.8,20.5,15.9,-99.9,-99.9,-99.9,0,0,100,0.00,40.00,5,1,13,0.02
2013-1-27,31.1,20.9,8.7,-99.9,-99.9,-99.9,0,0,100,0.00,40.00,4,1,13,0.13
2013-1-28,45.3,37.8,26.5,-99.9,-99.9,-99.9,0,0,100,0.00,40.00,8,4,21,0.18
2013-1-29,58.8,49.7,38.7,-99.9,-99.9,-99.9,0,0,100,0.00,40.00,8,3,23,0.08
2013-1-30,62.0,56.0,37.6,-99.9,-99.9,-99.9,0,0,100,0.00,40.00,11,8,30,0.33
2013-1-31,37.2,25.5,17.7,-99.9,-99.9,-99.9,0,0,100,0.00,40.00,11,8,29,0.07
2013-2-1,20.7,15.0,11.9,-99.9,-99.9,-99.9,0,0,100,0.00,40.00,7,5,19,0.12
2013-2-2,21.4,16.0,10.6,-99.9,-99.9,-99.9,0,0,100,0.00,40.00,6,3,14,0.10
2013-2-3,23.6,19.1,15.8,-99.9,-99.9,-99.9,0,0,100,0.00,40.00,7,3,17,0.00
2013-2-4,25.5,20.3,15.7,-99.9,-99.9,-99.9,0,0,100,0.00,40.00,5,2,17,0.04
2013-2-5,29.8,24.3,18.8,-99.9,-99.9,-99.9,0,0,100,0.00,40.00,4,1,12,0.01
2013-2-6,44.3,25.9,18.5,-99.9,-99.9,-99.9,0,0,100,0.00,40.00,7,2,18,0.00
2013-2-7,42.7,30.7,18.9,-99.9,-99.9,-99.9,0,0,100,0.00,40.00,5,2,13,0.00
2013-2-8,37.0,30.3,24.1,-99.9,-99.9,-99.9,0,0,100,0.00,40.00,9,6,25,0.25
2013-2-9,42.5,26.5,21.5,-99.9,-99.9,-99.9,0,0,100,0.00,40.00,6,2,16,0.00
2013-2-10,49.0,34.4,22.3,-99.9,-99.9,-99.9,0,0,100,0.00,40.00,6,2,15,0.00
2013-2-11,50.0,40.1,32.4,-99.9,-99.9,-99.9,0,0,100,0.00,40.00,12,8,40,0.00
2013-2-12,34.1,30.3,24.6,-99.9,-99.9,-99.9,0,0,100,0.00,40.00,8,3,20,0.00
2013-2-13,38.3,29.1,24.1,-99.9,-99.9,-99.9,0,0,100,0.00,40.00,4,0,10,0.00
2013-2-14,25.3,24.3,23.8,-99.9,-99.9,-99.9,0,0,100,0.00,40.00,2,1,6,0.00
2013-2-15,35.2,28.7,22.9,-99.9,-99.9,-99.9,0,0,100,0.00,40.00,7,2,19,0.01
2013-2-16,33.1,24.7,19.5,-99.9,-99.9,-99.9,0,0,100,0.00,40.00,3,1,9,0.02
2013-2-17,22.8,18.1,9.3,-99.9,-99.9,-99.9,0,0,100,0.00,40.00,7,3,17,0.02
2013-2-18,41.9,25.1,8.4,-99.9,-99.9,-99.9,0,0,100,0.00,40.00,6,2,19,0.00
2013-2-19,43.8,30.2,16.9,-99.9,-99.9,-99.9,0,0,100,0.00,40.00,13,8,34,0.17
2013-2-20,20.9,18.2,15.3,-99.9,-99.9,-99.9,0,0,100,0.00,40.00,8,6,21,0.05
2013-2-21,24.4,19.8,15.9,-99.9,-99.9,-99.9,0,0,100,0.00,40.00,5,2,14,0.00
2013-2-22,36.3,27.6,16.9,-99.9,-99.9,-99.9,0,0,100,0.00,40.00,8,4,16,0.02
2013-2-23,35.3,32.8,28.7,-99.9,-99.9,-99.9,0,0,100,0.00,40.00,6,2,15,0.00
2013-2-24,30.4,26.3,21.8,-99.9,-99.9,-99.9,0,0,100,0.00,40.00,6,3,15,0.00
2013-2-25,44.8,28.2,18.9,-99.9,-99.9,-99.9,0,0,100,0.00,40.00,3,1,7,0.00
2013-2-26,35.6,30.7,24.7,-99.9,-99.9,-99.9,0,0,100,0.00,40.00,10,6,23,0.41
2013-2-27,39.3,35.6,31.3,-99.9,-99.9,-99.9,0,0,100,0.00,40.00,6,4,18,0.26
2013-2-28,33.3,31.3,29.0,-99.9,-99.9,-99.9,0,0,100,0.00,40.00,6,4,16,0.01
2013-3-1,29.0,27.0,23.9,-99.9,-99.9,-99.9,0,0,100,0.00,40.00,4,3,17,0.00
2013-3-2,27.7,24.7,22.1,-99.9,-99.9,-99.9,0,0,100,0.00,40.00,4,2,15,0.00
2013-3-3,28.2,24.0,21.5,-99.9,-99.9,-99.9,0,0,100,0.00,40.00,7,3,15,0.00
2013-3-4,41.6,26.2,13.0,-99.9,-99.9,-99.9,0,0,100,0.00,40.00,5,2,15,0.00
2013-3-5,40.7,30.8,17.3,-99.9,-99.9,-99.9,0,0,100,0.00,40.00,6,3,13,0.00
2013-3-6,45.3,35.6,31.1,-99.9,-99.9,-99.9,0,0,100,0.00,40.00,6,2,15,0.00
2013-3-7,38.9,33.2,27.5,-99.9,-99.9,-99.9,0,0,100,0.00,40.00,4,2,12,0.00
2013-3-8,35.4,29.5,25.4,-99.9,-99.9,-99.9,0,0,100,0.00,40.00,3,1,14,0.00
2013-3-9,50.8,36.5,22.5,-99.9,-99.9,-99.9,0,0,100,0.00,40.00,3,1,12,0.00
2013-3-10,60.4,50.0,38.2,-99.9,-99.9,-99.9,0,0,100,0.00,40.00,9,4,21,0.00
2013-3-11,54.7,47.4,39.5,-99.9,-99.9,-99.9,0,0,100,0.00,40.00,8,4,25,0.60
2013-3-12,40.1,32.8,29.6,-99.9,-99.9,-99.9,0,0,100,0.00,40.00,7,5,18,0.00
2013-3-13,33.3,28.5,27.4,-99.9,-99.9,-99.9,0,0,100,0.00,40.00,10,6,24,0.02
2013-3-14,35.6,29.7,24.8,-99.9,-99.9,-99.9,0,0,100,0.00,40.00,9,6,22,0.00
2013-3-15,42.6,34.1,28.0,-99.9,-99.9,-99.9,0,0,100,0.00,40.00,6,3,15,0.05
2013-3-16,33.9,31.4,28.2,-99.9,-99.9,-99.9,0,0,100,0.00,40.00,5,0,12,0.15
2013-3-17,28.8,28.3,28.1,-99.9,-99.9,-99.9,0,0,100,0.00,40.00,0,0,5,0.00
2013-3-18,143.7,112.0,80.5,-99.9,-99.9,-99.9,0,0,100,0.00,40.00,7,5,16,0.20
2013-3-19,130.5,113.1,77.1,-99.9,-99.9,-99.9,0,0,100,0.00,40.00,10,7,29,0.00
2013-3-20,125.7,117.1,112.2,-99.9,-99.9,-99.9,0,0,100,0.00,40.00,9,4,21,0.01
2013-3-21,117.6,114.6,107.6,-99.9,-99.9,-99.9,0,0,100,0.00,40.00,6,4,16,0.06
2013-3-22,117.3,115.4,112.7,-99.9,-99.9,-99.9,0,0,100,0.00,40.00,5,4,15,0.16
2013-4-9,76.0,72.6,64.2,-99.9,-99.9,-99.9,0,0,100,0.00,40.00,9,5,21,0.00
2013-4-10,71.8,58.8,42.9,-99.9,-99.9,-99.9,0,0,100,0.00,40.00,6,2,21,0.66
2013-4-11,50.4,45.2,41.5,-99.9,-99.9,-99.9,0,0,100,0.00,40.00,8,3,15,0.18
2013-4-12,54.7,45.5,38.6,-99.9,-99.9,-99.9,0,0,100,0.00,40.00,8,4,22,0.30
2013-4-13,41.1,38.9,36.2,-99.9,-99.9,-99.9,0,0,100,0.00,40.00,7,5,21,0.07
2013-4-14,36.2,34.2,32.2,-99.9,-99.9,-99.9,0,0,100,0.00,40.00,3,1,8,0.00
2013-4-15,71.7,58.5,47.3,-99.9,-99.9,-99.9,0,0,100,0.00,40.00,8,4,22,0.00
2013-4-16,65.3,56.1,48.4,-99.9,-99.9,-99.9,0,0,100,0.00,40.00,7,3,16,0.12
2013-4-17,67.9,54.2,45.6,-99.9,-99.9,-99.9,0,0,100,0.00,40.00,5,1,11,0.00
2013-4-18,82.8,69.7,56.2,-99.9,-99.9,-99.9,0,0,100,0.00,40.00,11,6,31,0.00
2013-4-19,69.4,53.4,39.2,-99.9,-99.9,-99.9,0,0,100,0.00,40.00,12,6,30,0.36
2013-4-20,41.9,37.6,34.1,-99.9,-99.9,-99.9,0,0,100,0.00,40.00,9,6,24,0.03
2013-4-21,53.6,39.2,27.7,-99.9,-99.9,-99.9,0,0,100,0.00,40.00,3,1,10,0.00
2013-4-22,67.2,50.3,35.1,-99.9,-99.9,-99.9,0,0,100,0.00,40.00,4,2,14,0.00
2013-4-23,74.6,58.1,42.5,-99.9,-99.9,-99.9,0,0,100,0.00,40.00,7,3,18,0.00
2013-4-24,62.7,48.2,36.4,-99.9,-99.9,-99.9,0,0,100,0.00,40.00,7,4,20,0.58
2013-4-25,54.2,38.5,31.4,-99.9,-99.9,-99.9,0,0,100,0.00,40.00,9,3,24,0.00
2013-4-26,58.8,53.8,36.7,-99.9,-99.9,-99.9,0,0,100,0.00,40.00,3,1,11,0.00
2013-4-27,75.7,56.9,38.9,-99.9,-99.9,-99.9,0,0,100,0.00,40.00,3,1,13,0.00
2013-4-28,57.0,53.7,51.0,-99.9,-99.9,-99.9,0,0,100,0.00,40.00,3,1,11,0.18
2013-4-29,65.0,57.2,53.2,-99.9,-99.9,-99.9,0,0,100,0.00,40.00,3,0,10,0.13
2013-4-30,76.1,63.2,51.9,-99.9,-99.9,-99.9,0,0,100,0.00,40.00,3,1,16,0.01
2013-5-1,83.3,67.1,53.8,-99.9,-99.9,-99.9,0,0,100,0.00,40.00,3,2,12,0.00
2013-5-2,82.8,67.6,55.4,-99.9,-99.9,-99.9,0,0,100,0.00,40.00,3,1,14,0.00
2013-5-3,79.7,66.4,55.4,-99.9,-99.9,-99.9,0,0,100,0.00,40.00,4,2,22,0.00
2013-5-4,77.4,62.7,52.1,-99.9,-99.9,-99.9,0,0,100,0.00,40.00,4,2,14,0.00
2013-5-5,74.3,63.5,52.5,-99.9,-99.9,-99.9,0,0,100,0.00,40.00,6,2,14,0.00
2013-5-6,80.6,63.1,50.0,-99.9,-99.9,-99.9,0,0,100,0.00,40.00,4,2,11,0.00
2013-5-7,78.5,65.2,55.6,-99.9,-99.9,-99.9,0,0,100,0.00,40.00,2,0,11,0.00
2013-5-8,74.9,62.5,55.9,-99.9,-99.9,-99.9,0,0,100,0.00,40.00,1,0,10,0.03
2013-5-9,84.9,65.1,53.7,-99.9,-99.9,-99.9,0,0,100,0.00,40.00,2,0,11,0.01
2013-5-10,73.0,63.8,57.9,-99.9,-99.9,-99.9,0,0,100,0.00,40.00,8,3,23,0.35
2013-5-11,59.6,48.3,43.8,-99.9,-99.9,-99.9,0,0,100,0.00,40.00,6,2,21,0.07
2013-5-12,48.0,42.1,36.3,-99.9,-99.9,-99.9,0,0,100,0.00,40.00,7,4,24,0.07
2013-5-13,56.3,42.8,35.3,-99.9,-99.9,-99.9,0,0,100,0.00,40.00,4,2,15,0.00
2013-5-14,63.7,49.3,35.2,-99.9,-99.9,-99.9,0,0,100,0.00,40.00,4,1,17,0.00
2013-5-15,84.9,68.1,52.6,-99.9,-99.9,-99.9,0,0,100,0.00,40.00,7,3,25,0.01
2013-5-16,87.6,68.0,54.5,-99.9,-99.9,-99.9,0,0,100,0.00,40.00,3,1,13,0.00
2013-5-17,85.7,65.3,52.9,-99.9,-99.9,-99.9,0,0,100,0.00,40.00,2,0,11,0.00
2013-5-18,86.3,67.4,55.1,-99.9,-99.9,-99.9,0,0,100,0.00,40.00,1,0,7,0.00
2013-5-19,81.3,70.3,60.2,-99.9,-99.9,-99.9,0,0,100,0.00,40.00,2,0,12,0.00
2013-5-20,88.0,74.2,64.1,-99.9,-99.9,-99.9,0,0,100,0.00,40.00,5,2,16,0.00
2013-5-21,85.6,76.1,69.3,-99.9,-99.9,-99.9,0,0,100,0.00,40.00,8,4,21,0.00
2013-5-22,86.9,75.5,68.8,-99.9,-99.9,-99.9,0,0,100,0.00,40.00,9,5,22,0.03
2013-5-23,72.9,60.9,42.6,-99.9,-99.9,-99.9,0,0,100,0.00,40.00,5,2,19,0.09
2013-5-24,44.2,41.9,37.9,-99.9,-99.9,-99.9,0,0,100,0.00,40.00,4,2,16,0.01
2013-5-25,65.5,47.1,33.6,-99.9,-99.9,-99.9,0,0,100,0.00,40.00,4,1,20,0.00
2013-5-26,71.0,50.9,37.2,-99.9,-99.9,-99.9,0,0,100,0.00,40.00,2,1,11,0.00
2013-5-27,58.6,50.5,39.8,-99.9,-99.9,-99.9,0,0,100,0.00,40.00,2,0,9,0.03
2013-5-28,78.5,64.2,50.1,-99.9,-99.9,-99.9,0,0,100,0.00,40.00,6,2,17,0.37
2013-5-29,84.2,75.3,69.7,-99.9,-99.9,-99.9,0,0,100,0.00,40.00,7,3,22,0.01
2013-5-30,87.2,77.0,66.8,-99.9,-99.9,-99.9,0,0,100,0.00,40.00,6,2,18,0.00
2013-5-31,87.8,73.5,64.9,-99.9,-99.9,-99.9,0,0,100,0.00,40.00,6,2,20,0.83
2013-6-1,81.0,72.1,65.1,-99.9,-99.9,-99.9,0,0,100,0.00,40.00,10,4,23,0.24
2013-6-2,149.2,80.6,67.1,-99.9,-99.9,-99.9,0,0,100,0.00,40.00,7,4,19,0.36
2013-6-3,75.0,61.1,48.9,-99.9,-99.9,-99.9,0,0,100,0.00,40.00,2,1,13,0.00
2013-6-4,78.9,57.8,45.2,-99.9,-99.9,-99.9,0,0,100,0.00,40.00,2,0,11,0.00
2013-6-5,83.3,62.0,48.5,-99.9,-99.9,-99.9,0,0,100,0.00,40.00,1,0,11,0.00
2013-6-6,63.2,59.5,53.9,-99.9,-99.9,-99.9,0,0,100,0.00,40.00,1,0,9,0.71
2013-6-7,58.7,55.5,53.4,-99.9,-99.9,-99.9,0,0,100,0.00,40.00,1,0,7,0.01
2013-6-8,69.4,60.2,55.2,-99.9,-99.9,-99.9,0,0,100,0.00,40.00,1,0,8,0.00
2013-6-9,77.1,64.9,52.6,-99.9,-99.9,-99.9,0,0,100,0.00,40.00,0,0,10,0.00
2013-6-10,70.1,66.6,64.2,-99.9,-99.9,-99.9,0,0,100,0.00,40.00,3,0,15,0.52
2013-6-11,75.3,67.2,62.4,-99.9,-99.9,-99.9,0,0,100,0.00,40.00,5,2,15,0.02
2013-6-12,76.0,69.9,64.1,-99.9,-99.9,-99.9,0,0,100,0.00,40.00,2,0,8,0.00
2013-6-13,105.9,67.7,59.7,-99.9,-99.9,-99.9,0,0,100,0.00,40.00,7,2,19,0.61
2013-6-14,70.5,61.8,55.5,-99.9,-99.9,-99.9,0,0,100,0.00,40.00,2,0,10,0.00
2013-6-15,83.5,64.5,50.8,-99.9,-99.9,-99.9,0,0,100,0.00,40.00,4,1,12,0.00
2013-6-16,78.3,69.9,62.1,-99.9,-99.9,-99.9,0,0,100,0.00,40.00,6,2,17,0.08
2013-6-17,90.1,71.0,62.6,-99.9,-99.9,-99.9,0,0,100,0.00,40.00,5,1,21,0.00
2013-6-18,74.9,66.1,59.2,-99.9,-99.9,-99.9,0,0,100,0.00,40.00,2,0,11,0.00
2013-6-19,82.1,62.9,51.6,-99.9,-99.9,-99.9,0,0,100,0.00,40.00,1,0,9,0.00
2013-6-20,86.5,65.7,51.1,-99.9,-99.9,-99.9,0,0,100,0.00,40.00,2,0,10,0.00
2013-6-21,87.0,70.0,56.1,-99.9,-99.9,-99.9,0,0,100,0.00,40.00,2,0,9,0.00
2013-6-22,89.6,77.5,67.7,-99.9,-99.9,-99.9,0,0,100,0.00,40.00,6,2,15,0.00
2013-6-23,90.9,75.4,69.3,-99.9,-99.9,-99.9,0,0,100,0.00,40.00,6,1,16,0.00
2013-6-24,91.5,78.1,68.9,-99.9,-99.9,-99.9,0,0,100,0.00,40.00,5,2,14,0.00
2013-6-25,89.7,74.8,65.4,-99.9,-99.9,-99.9,0,0,100,0.00,40.00,5,2,23,0.53
2013-6-26,83.0,72.8,65.1,-99.9,-99.9,-99.9,0,0,100,0.00,40.00,5,1,16,0.07
2013-6-27,80.3,72.1,67.6,-99.9,-99.9,-99.9,0,0,100,0.00,40.00,1,0,8,0.04
2013-6-28,84.9,70.4,64.4,-99.9,-99.9,-99.9,0,0,100,0.00,40.00,3,1,14,0.01
2013-6-29,72.9,65.5,62.2,-99.9,-99.9,-99.9,0,0,100,0.00,40.00,2,0,7,0.22
2013-6-30,75.4,67.3,61.5,-99.9,-99.9,-99.9,0,0,100,0.00,40.00,1,0,9,0.00
2013-7-1,70.2,65.9,62.7,-99.9,-99.9,-99.9,0,0,100,0.00,40.00,0,0,6,0.11
2013-7-2,81.5,69.9,62.0,-99.9,-99.9,-99.9,0,0,100,0.00,40.00,1,0,8,0.00
2013-7-3,85.8,74.2,66.0,-99.9,-99.9,-99.9,0,0,100,0.00,40.00,5,1,16,0.03
2013-7-4,78.3,72.6,67.4,-99.9,-99.9,-99.9,0,0,100,0.00,40.00,5,2,14,0.07
2013-7-5,77.9,71.5,67.4,-99.9,-99.9,-99.9,0,0,100,0.00,40.00,5,2,14,0.21
2013-7-6,87.4,74.7,68.4,-99.9,-99.9,-99.9,0,0,100,0.00,40.00,2,0,13,0.12
2013-7-7,79.6,72.4,65.0,-99.9,-99.9,-99.9,0,0,100,0.00,40.00,4,2,14,0.54
2013-7-8,86.5,71.1,63.9,-99.9,-99.9,-99.9,0,0,100,0.00,40.00,4,1,14,1.78
2013-7-9,86.6,74.4,67.0,-99.9,-99.9,-99.9,0,0,100,0.00,40.00,5,2,17,0.09
2013-7-10,87.5,71.2,66.2,-99.9,-99.9,-99.9,0,0,100,0.00,40.00,6,2,27,1.83
2013-7-11,86.1,69.6,63.1,-99.9,-99.9,-99.9,0,0,100,0.00,40.00,2,0,13,0.00
2013-7-12,84.1,67.9,58.5,-99.9,-99.9,-99.9,0,0,100,0.00,40.00,0,0,7,0.00
2013-7-13,89.9,72.0,61.4,-99.9,-99.9,-99.9,0,0,100,0.00,40.00,0,0,9,0.00
2013-7-14,89.0,76.6,67.0,-99.9,-99.9,-99.9,0,0,100,0.00,40.00,2,0,10,0.00
2013-7-15,97.7,80.1,71.9,-99.9,-99.9,-99.9,0,0,100,0.00,40.00,1,0,7,0.00
2013-7-16,87.6,80.0,72.6,-99.9,-99.9,-99.9,0,0,100,0.00,40.00,1,0,9,0.00
2013-7-17,97.3,81.1,73.6,-99.9,-99.9,-99.9,0,0,100,0.00,40.00,2,0,10,0.00
2013-7-18,92.9,82.1,74.7,-99.9,-99.9,-99.9,0,0,100,0.00,40.00,1,0,10,0.00
2013-7-19,90.6,82.0,75.7,-99.9,-99.9,-99.9,0,0,100,0.00,40.00,7,3,16,0.00
2013-7-20,80.0,71.1,66.3,-99.9,-99.9,-99.9,0,0,100,0.00,40.00,5,1,41,1.11
2013-7-21,86.7,73.1,66.1,-99.9,-99.9,-99.9,0,0,100,0.00,40.00,0,0,6,0.00
2013-7-22,76.0,68.6,64.1,-99.9,-99.9,-99.9,0,0,100,0.00,40.00,0,0,3,0.02
2013-7-23,83.2,70.0,63.7,-99.9,-99.9,-99.9,0,0,100,0.00,40.00,3,1,11,0.16
2013-7-24,76.3,64.5,57.0,-99.9,-99.9,-99.9,0,0,100,0.00,40.00,1,0,11,0.00
2013-7-25,85.8,63.8,52.5,-99.9,-99.9,-99.9,0,0,100,0.00,40.00,1,0,6,0.00
2013-7-26,86.0,67.5,55.5,-99.9,-99.9,-99.9,0,0,100,0.00,40.00,2,0,10,0.00
2013-7-27,67.9,65.4,61.9,-99.9,-99.9,-99.9,0,0,100,0.00,40.00,5,1,14,0.18
2013-7-28,68.9,62.7,55.8,-99.9,-99.9,-99.9,0,0,100,0.00,40.00,6,2,17,0.02
2013-7-29,68.5,61.0,54.7,-99.9,-99.9,-99.9,0,0,100,0.00,40.00,4,1,15,0.04
2013-7-30,81.5,65.7,55.9,-99.9,-99.9,-99.9,0,0,100,0.00,40.00,1,0,8,0.00
2013-7-31,76.2,67.9,59.3,-99.9,-99.9,-99.9,0,0,100,0.00,40.00,3,1,13,0.00
2013-8-1,82.5,69.1,62.9,-99.9,-99.9,-99.9,0,0,100,0.00,40.00,5,1,14,0.17
2013-8-2,72.9,65.7,59.9,-99.9,-99.9,-99.9,0,0,100,0.00,40.00,6,2,20,0.33
2013-8-3,85.4,69.9,62.3,-99.9,-99.9,-99.9,0,0,100,0.00,40.00,3,1,11,0.10
2013-8-4,79.3,65.2,58.8,-99.9,-99.9,-99.9,0,0,100,0.00,40.00,3,1,12,0.00
2013-8-5,77.1,62.4,51.9,-99.9,-99.9,-99.9,0,0,100,0.00,40.00,1,0,7,0.00
2013-8-6,82.4,67.3,57.9,-99.9,-99.9,-99.9,0,0,100,0.00,40.00,2,0,11,0.00
2013-8-7,77.1,69.6,65.3,-99.9,-99.9,-99.9,0,0,100,0.00,40.00,4,1,14,0.17
2013-8-8,77.3,72.1,68.5,-99.9,-99.9,-99.9,0,0,100,0.00,40.00,2,0,8,1.25
2013-8-9,83.7,70.3,62.9,-99.9,-99.9,-99.9,0,0,100,0.00,40.00,2,0,9,0.03
2013-8-10,78.6,67.8,60.5,-99.9,-99.9,-99.9,0,0,100,0.00,40.00,0,0,5,0.00
2013-8-11,90.7,70.1,60.7,-99.9,-99.9,-99.9,0,0,100,0.00,40.00,1,0,9,0.00
2013-8-12,76.4,69.5,63.2,-99.9,-99.9,-99.9,0,0,100,0.00,40.00,2,0,8,0.00
2013-8-13,71.5,66.1,56.6,-99.9,-99.9,-99.9,0,0,100,0.00,40.00,3,1,15,0.00
2013-8-14,69.4,60.6,55.3,-99.9,-99.9,-99.9,0,0,100,0.00,40.00,2,0,13,0.00
2013-8-15,74.0,61.2,52.4,-99.9,-99.9,-99.9,0,0,100,0.00,40.00,3,0,10,0.00
2013-8-16,74.6,62.6,52.3,-99.9,-99.9,-99.9,0,0,100,0.00,40.00,0,0,6,0.00
2013-8-17,77.9,65.5,54.8,-99.9,-99.9,-99.9,0,0,100,0.00,40.00,1,0,7,0.00
2013-8-18,80.5,65.6,56.1,-99.9,-99.9,-99.9,0,0,100,0.00,40.00,2,0,8,0.00
2013-8-19,78.8,68.7,61.7,-99.9,-99.9,-99.9,0,0,100,0.00,40.00,1,0,9,0.00
2013-8-20,83.8,70.7,60.9,-99.9,-99.9,-99.9,0,0,100,0.00,40.00,1,0,6,0.00
2013-8-21,86.5,72.8,63.1,-99.9,-99.9,-99.9,0,0,100,0.00,40.00,2,0,9,0.00
2013-8-22,82.7,72.5,65.9,-99.9,-99.9,-99.9,0,0,100,0.00,40.00,3,1,11,0.12
2013-8-23,82.8,71.6,60.9,-99.9,-99.9,-99.9,0,0,100,0.00,40.00,1,0,10,0.00
2013-8-24,81.9,66.7,55.0,-99.9,-99.9,-99.9,0,0,100,0.00,40.00,0,0,4,0.00
2013-8-25,83.8,70.0,56.5,-99.9,-99.9,-99.9,0,0,100,0.00,40.00,4,1,12,0.00
2013-8-26,84.3,74.5,65.3,-99.9,-99.9,-99.9,0,0,100,0.00,40.00,6,3,15,0.00
2013-8-27,78.6,74.8,68.3,-99.9,-99.9,-99.9,0,0,100,0.00,40.00,3,1,19,0.34
2013-8-28,75.8,72.4,69.5,-99.9,-99.9,-99.9,0,0,100,0.00,40.00,3,0,11,0.15
2013-8-29,88.4,74.2,68.3,-99.9,-99.9,-99.9,0,0,100,0.00,40.00,0,0,8,0.00
2013-8-30,87.1,74.8,65.4,-99.9,-99.9,-99.9,0,0,100,0.00,40.00,4,1,13,0.00
2013-8-31,83.2,75.4,68.8,-99.9,-99.9,-99.9,0,0,100,0.00,40.00,3,1,10,0.00
2013-9-1,80.1,71.0,66.6,-99.9,-99.9,-99.9,0,0,100,0.00,40.00,2,0,10,0.96
2013-9-2,77.4,70.1,64.2,-99.9,-99.9,-99.9,0,0,100,0.00,40.00,2,0,11,0.03
2013-9-3,65.2,61.3,56.2,-99.9,-99.9,-99.9,0,0,100,0.00,40.00,2,0,9,0.00
2013-9-4,80.2,64.4,54.1,-99.9,-99.9,-99.9,0,0,100,0.00,40.00,3,1,13,0.00
2013-9-5,76.8,64.4,54.1,-99.9,-99.9,-99.9,0,0,100,0.00,40.00,2,0,11,0.00
2013-9-6,82.3,59.6,47.5,-99.9,-99.9,-99.9,0,0,100,0.00,40.00,0,0,5,0.00
2013-9-7,81.0,66.3,54.9,-99.9,-99.9,-99.9,0,0,100,0.00,40.00,3,1,11,0.00
2013-9-8,73.0,67.5,55.7,-99.9,-99.9,-99.9,0,0,100,0.00,40.00,0,0,8,0.00
2013-9-9,77.1,65.5,54.2,-99.9,-99.9,-99.9,0,0,100,0.00,40.00,1,0,9,0.00
2013-9-10,95.7,81.0,72.1,-99.9,-99.9,-99.9,0,0,100,0.00,40.00,6,3,14,0.00
2013-9-11,92.3,81.2,74.2,-99.9,-99.9,-99.9,0,0,100,0.00,40.00,5,2,11,0.00
2013-9-12,78.1,69.8,57.2,-99.9,-99.9,-99.9,0,0,100,0.00,40.00,3,0,18,0.46
2013-9-13,59.2,56.2,52.4,-99.9,-99.9,-99.9,0,0,100,0.00,40.00,3,1,14,0.16
2013-9-14,67.8,55.0,47.5,-99.9,-99.9,-99.9,0,0,100,0.00,40.00,1,0,8,0.00
2013-9-15,67.1,56.5,48.1,-99.9,-99.9,-99.9,0,0,100,0.00,40.00,3,1,10,0.01
2013-9-16,64.4,57.6,52.0,-99.9,-99.9,-99.9,0,0,100,0.00,40.00,3,0,13,0.02
2013-9-17,71.5,54.3,42.3,-99.9,-99.9,-99.9,0,0,100,0.00,40.00,0,0,7,0.01
2013-9-18,72.8,59.9,49.3,-99.9,-99.9,-99.9,0,0,100,0.00,40.00,2,0,9,0.00
2013-9-19,75.5,65.9,59.2,-99.9,-99.9,-99.9,0,0,100,0.00,40.00,3,1,11,0.00
2013-9-20,79.1,70.4,63.7,-99.9,-99.9,-99.9,0,0,100,0.00,40.00,4,1,19,0.01
2013-9-21,67.2,62.5,55.4,-99.9,-99.9,-99.9,0,0,100,0.00,40.00,3,1,22,0.77
2013-9-22,58.3,54.2,50.4,-99.9,-99.9,-99.9,0,0,100,0.00,40.00,2,0,12,0.01
2013-9-23,57.6,52.0,44.8,-99.9,-99.9,-99.9,0,0,100,0.00,40.00,0,0,5,0.00
2013-9-24,70.1,51.8,40.1,-99.9,-99.9,-99.9,0,0,100,0.00,40.00,0,0,7,0.00
2013-9-25,70.9,56.1,45.1,-99.9,-99.9,-99.9,0,0,100,0.00,40.00,0,0,1,0.00
2013-9-26,77.6,58.8,48.4,-99.9,-99.9,-99.9,0,0,100,0.00,40.00,1,0,8,0.00
2013-9-27,71.1,59.0,49.9,-99.9,-99.9,-99.9,0,0,100,0.00,40.00,0,0,5,0.00
2013-9-28,74.3,61.7,51.8,-99.9,-99.9,-99.9,0,0,100,0.00,40.00,1,0,10,0.00
2013-9-29,70.7,61.8,53.8,-99.9,-99.9,-99.9,0,0,100,0.00,40.00,2,0,10,0.00
2013-9-30,63.9,60.9,58.7,-99.9,-99.9,-99.9,0,0,100,0.00,40.00,2,1,9,0.03
2013-10-1,74.9,64.4,57.0,-99.9,-99.9,-99.9,0,0,100,0.00,40.00,5,1,14,0.01
2013-10-2,76.5,66.4,60.0,-99.9,-99.9,-99.9,0,0,100,0.00,40.00,1,0,9,0.00
2013-10-3,77.0,66.4,58.6,-99.9,-99.9,-99.9,0,0,100,0.00,40.00,4,1,11,0.01
2013-10-4,76.4,68.3,64.6,-99.9,-99.9,-99.9,0,0,100,0.00,40.00,4,1,10,0.39
2013-10-5,74.1,67.9,64.6,-99.9,-99.9,-99.9,0,0,100,0.00,40.00,3,0,9,0.10
2013-10-6,78.4,70.3,61.6,-99.9,-99.9,-99.9,0,0,100,0.00,40.00,8,2,25,0.04
2013-10-7,61.6,51.8,45.7,-99.9,-99.9,-99.9,0,0,100,0.00,40.00,7,3,18,0.77
2013-10-8,70.7,54.4,44.8,-99.9,-99.9,-99.9,0,0,100,0.00,40.00,0,0,6,0.00
2013-10-9,71.9,54.0,44.5,-99.9,-99.9,-99.9,0,0,100,0.00,40.00,0,0,6,0.00
2013-10-10,69.4,54.1,42.9,-99.9,-99.9,-99.9,0,0,100,0.00,40.00,0,0,4,0.00
2013-10-11,77.8,57.4,45.7,-99.9,-99.9,-99.9,0,0,100,0.00,40.00,0,0,5,0.00
2013-10-12,80.6,61.3,49.8,-99.9,-99.9,-99.9,0,0,100,0.00,40.00,0,0,7,0.00
2013-10-13,67.2,62.5,58.1,-99.9,-99.9,-99.9,0,0,100,0.00,40.00,1,0,10,0.00
2013-10-14,70.4,55.9,48.1,-99.9,-99.9,-99.9,0,0,100,0.00,40.00,2,0,9,0.00
2013-10-15,61.6,53.4,45.6,-99.9,-99.9,-99.9,0,0,100,0.00,40.00,2,0,10,0.00
2013-10-16,65.9,60.2,55.9,-99.9,-99.9,-99.9,0,0,100,0.00,40.00,6,2,16,0.53
2013-10-17,59.4,49.6,43.6,-99.9,-99.9,-99.9,0,0,100,0.00,40.00,3,1,12,0.15
2013-10-18,62.0,50.7,42.2,-99.9,-99.9,-99.9,0,0,100,0.00,40.00,6,4,18,0.00
2013-10-19,51.2,45.4,39.9,-99.9,-99.9,-99.9,0,0,100,0.00,40.00,6,2,14,0.18
2013-10-20,56.7,45.9,37.4,-99.9,-99.9,-99.9,0,0,100,0.00,40.00,7,4,19,0.01
2013-10-21,62.0,52.8,46.6,-99.9,-99.9,-99.9,0,0,100,0.00,40.00,8,5,26,0.03
2013-10-22,50.0,43.8,36.3,-99.9,-99.9,-99.9,0,0,100,0.00,40.00,5,3,16,0.16
2013-10-23,45.2,39.8,35.7,-99.9,-99.9,-99.9,0,0,100,0.00,40.00,4,1,13,0.09
2013-10-24,40.1,33.4,31.6,-99.9,-99.9,-99.9,0,0,100,0.00,40.00,5,1,15,1.14
2013-10-25,49.1,36.9,32.7,-99.9,-99.9,-99.9,0,0,100,0.00,40.00,6,2,16,0.07
2013-10-26,43.3,38.9,34.8,-99.9,-99.9,-99.9,0,0,100,0.00,40.00,12,6,28,0.01
2013-10-27,49.8,39.9,34.1,-99.9,-99.9,-99.9,0,0,100,0.00,40.00,4,1,13,0.00
2013-10-28,61.1,43.8,34.0,-99.9,-99.9,-99.9,0,0,100,0.00,40.00,2,0,7,0.00
2013-10-29,64.5,44.0,31.7,-99.9,-99.9,-99.9,0,0,100,0.00,40.00,1,0,6,0.00
2013-10-30,69.7,51.3,37.4,-99.9,-99.9,-99.9,0,0,100,0.00,40.00,2,0,9,0.00
2013-10-31,64.7,59.3,55.4,-99.9,-99.9,-99.9,0,0,100,0.00,40.00,9,5,24,0.08
2013-11-1,58.0,52.8,48.1,-99.9,-99.9,-99.9,0,0,100,0.00,40.00,10,6,32,0.39
2013-11-2,49.0,44.8,40.7,-99.9,-99.9,-99.9,0,0,100,0.00,40.00,4,2,14,0.29
2013-11-3,52.0,39.9,31.0,-99.9,-99.9,-99.9,0,0,100,0.00,40.00,2,1,9,0.00
2013-11-4,43.7,36.6,29.0,-99.9,-99.9,-99.9,0,0,100,0.00,40.00,4,2,11,0.00
2013-11-5,57.8,50.0,40.4,-99.9,-99.9,-99.9,0,0,100,0.00,40.00,3,1,12,0.00
2013-11-6,63.7,54.4,45.6,-99.9,-99.9,-99.9,0,0,100,0.00,40.00,10,5,25,0.19
2013-11-7,49.3,41.2,36.7,-99.9,-99.9,-99.9,0,0,100,0.00,40.00,7,4,22,0.24
2013-11-8,42.1,36.8,31.4,-99.9,-99.9,-99.9,0,0,100,0.00,40.00,6,2,18,0.11
2013-11-9,55.0,47.1,30.8,-99.9,-99.9,-99.9,0,0,100,0.00,40.00,10,6,26,0.00
2013-11-10,51.1,43.2,38.7,-99.9,-99.9,-99.9,0,0,100,0.00,40.00,10,6,28,0.00
2013-11-11,44.8,37.9,30.9,-99.9,-99.9,-99.9,0,0,100,0.00,40.00,8,3,21,0.27
2013-11-12,41.8,30.1,27.3,-99.9,-99.9,-99.9,0,0,100,0.00,40.00,5,1,20,0.10
2013-11-13,40.8,31.0,26.3,-99.9,-99.9,-99.9,0,0,100,0.00,40.00,7,4,16,0.00
2013-11-14,47.6,39.2,28.3,-99.9,-99.9,-99.9,0,0,100,0.00,40.00,9,7,21,0.00
2013-11-15,54.5,45.3,37.1,-99.9,-99.9,-99.9,0,0,100,0.00,40.00,7,5,17,0.00
2013-11-16,58.8,51.1,39.9,-99.9,-99.9,-99.9,0,0,100,0.00,40.00,5,2,18,0.00
2013-11-17,60.1,57.2,50.8,-99.9,-99.9,-99.9,0,0,100,0.00,40.00,14,8,41,0.29
2013-11-18,50.8,43.2,37.6,-99.9,-99.9,-99.9,0,0,100,0.00,40.00,13,8,29,0.00
2013-11-19,38.8,34.1,26.7,-99.9,-99.9,-99.9,0,0,100,0.00,40.00,5,2,14,0.00
2013-11-20,49.8,35.2,25.7,-99.9,-99.9,-99.9,0,0,100,0.00,40.00,5,2,16,0.00
2013-11-21,41.9,38.2,35.1,-99.9,-99.9,-99.9,0,0,100,0.00,40.00,4,1,11,0.01
2013-11-22,47.4,42.1,34.8,-99.9,-99.9,-99.9,0,0,100,0.00,40.00,7,3,22,0.07
2013-11-23,34.4,27.5,19.7,-99.9,-99.9,-99.9,0,0,100,0.00,40.00,8,5,32,0.02
2013-11-24,22.5,19.9,17.0,-99.9,-99.9,-99.9,0,0,100,0.00,40.00,8,5,24,0.01
2013-11-25,31.7,24.8,15.8,-99.9,-99.9,-99.9,0,0,100,0.00,40.00,8,5,20,0.00
2013-11-26,33.1,31.0,29.7,-99.9,-99.9,-99.9,0,0,100,0.00,40.00,7,2,18,0.17
2013-11-27,31.0,26.3,23.0,-99.9,-99.9,-99.9,0,0,100,0.00,40.00,8,4,23,0.03
2013-11-28,27.7,23.3,17.8,-99.9,-99.9,-99.9,0,0,100,0.00,40.00,5,3,18,0.01
2013-11-29,38.7,28.4,21.3,-99.9,-99.9,-99.9,0,0,100,0.00,40.00,1,0,6,0.00
2013-11-30,38.7,31.3,24.4,-99.9,-99.9,-99.9,0,0,100,0.00,40.00,5,3,14,0.00
2013-12-1,39.7,35.6,31.2,-99.9,-99.9,-99.9,0,0,100,0.00,40.00,5,2,11,0.00
2013-12-2,39.7,35.3,30.3,-99.9,-99.9,-99.9,0,0,100,0.00,40.00,1,0,6,0.00
2013-12-3,46.1,39.1,30.1,-99.9,-99.9,-99.9,0,0,100,0.00,40.00,3,1,9,0.00
2013-12-4,56.4,49.5,41.1,-99.9,-99.9,-99.9,0,0,100,0.00,40.00,3,1,10,0.00
2013-12-5,59.9,48.5,33.3,-99.9,-99.9,-99.9,0,0,100,0.00,40.00,7,4,19,0.06
2013-12-6,35.4,31.3,26.3,-99.9,-99.9,-99.9,0,0,100,0.00,40.00,5,1,12,0.14
2013-12-7,26.9,24.2,21.4,-99.9,-99.9,-99.9,0,0,100,0.00,40.00,6,2,14,0.00
2013-12-8,26.6,22.8,18.9,-99.9,-99.9,-99.9,0,0,100,0.00,40.00,5,2,14,0.00
2013-12-9,32.1,29.0,23.9,-99.9,-99.9,-99.9,0,0,100,0.00,40.00,8,5,23,0.00
2013-12-10,25.6,22.1,17.7,-99.9,-99.9,-99.9,0,0,100,0.00,40.00,10,6,24,0.00
2013-12-11,24.0,19.7,16.5,-99.9,-99.9,-99.9,0,0,100,0.00,40.00,7,5,18,0.07
2013-12-12,22.0,13.8,0.5,-99.9,-99.9,-99.9,0,0,100,0.00,40.00,8,6,17,0.00
2013-12-13,29.0,22.6,15.8,-99.9,-99.9,-99.9,0,0,100,0.00,40.00,5,2,16,0.00
2013-12-14,32.0,27.1,22.6,-99.9,-99.9,-99.9,0,0,100,0.00,40.00,5,3,12,0.14
2013-12-15,32.8,22.8,11.2,-99.9,-99.9,-99.9,0,0,100,0.00,40.00,7,4,17,0.01
2013-12-16,36.5,18.1,10.5,-99.9,-99.9,-99.9,0,0,100,0.00,40.00,5,2,15,0.01
2013-12-17,26.6,23.9,19.5,-99.9,-99.9,-99.9,0,0,100,0.00,40.00,6,3,14,0.07
2013-12-18,27.8,24.9,23.0,-99.9,-99.9,-99.9,0,0,100,0.00,40.00,8,5,22,0.00
2013-12-19,45.2,38.2,27.9,-99.9,-99.9,-99.9,0,0,100,0.00,40.00,8,5,23,0.00
2013-12-20,52.5,45.4,40.4,-99.9,-99.9,-99.9,0,0,100,0.00,40.00,8,6,20,0.23
2013-12-21,54.7,47.7,40.0,-99.9,-99.9,-99.9,0,0,100,0.00,40.00,8,4,20,1.19
2013-12-22,61.9,51.2,38.6,-99.9,-99.9,-99.9,0,0,100,0.00,40.00,11,6,28,0.56
2013-12-23,38.3,32.8,27.0,-99.9,-99.9,-99.9,0,0,100,0.00,40.00,6,4,17,0.00
2013-12-24,26.9,17.9,14.0,-99.9,-99.9,-99.9,0,0,100,0.00,40.00,7,4,18,0.04
2013-12-25,25.6,20.0,13.1,-99.9,-99.9,-99.9,0,0,100,0.00,40.00,6,2,16,0.00
2013-12-26,30.2,26.5,21.3,-99.9,-99.9,-99.9,0,0,100,0.00,40.00,7,4,21,0.04
2013-12-27,38.9,33.2,24.1,-99.9,-99.9,-99.9,0,0,100,0.00,40.00,7,3,15,0.00
2013-12-28,37.7,36.8,35.3,-99.9,-99.9,-99.9,0,0,100,0.00,40.00,8,7,17,0.00
2013-12-29,42.0,39.5,36.5,-99.9,-99.9,-99.9,0,0,100,0.00,40.00,5,3,14,0.06
2013-12-30,27.1,20.5,17.8,-99.9,-99.9,-99.9,0,0,100,0.00,40.00,4,1,14,0.02
2013-12-31,20.1,18.0,15.6,-99.9,-99.9,-99.9,0,0,100,0.00,40.00,7,4,18,0.05
2014-1-1,25.1,19.9,17.4,-99.9,-99.9,-99.9,0,0,100,0.00,40.00,3,1,7,0.08
2014-1-2,19.9,16.6,10.5,-99.9,-99.9,-99.9,0,0,100,0.00,40.00,8,5,20,0.07